Time;durP1;ratioP1;P1;durP2;ratioP2;P2;SDS_P1;SDS_P2;PMS_P1;PMS_P2;Temp;Humidity;BMP_temperature;BMP_pressure;BME280_temperature;BME280_humidity;BME280_pressure;Samples;Min_cycle;Max_cycle;Signal;HPM_P1;HPM_P2
2022/06/19 00:01:08;;;;;;;5.10;2.63;;;22.00;99.90;;;;;;5003270;28;20446;-48
2022/06/19 00:03:41;;;;;;;2.60;2.40;;;22.10;99.90;;;;;;5003082;28;20452;-47
2022/06/19 00:06:09;;;;;;;3.47;3.27;;;22.10;99.90;;;;;;5002434;28;20433;-48
2022/06/19 00:08:37;;;;;;;2.50;2.30;;;22.10;99.90;;;;;;5003272;28;20474;-47
2022/06/19 00:11:11;;;;;;;5.97;2.93;;;22.20;99.90;;;;;;5002615;28;20744;-50
2022/06/19 00:13:39;;;;;;;2.33;2.23;;;22.20;99.90;;;;;;5003282;28;20435;-48
2022/06/19 00:16:06;;;;;;;2.73;2.53;;;22.20;99.90;;;;;;5002522;28;20455;-50
2022/06/19 00:18:34;;;;;;;2.57;2.40;;;22.10;99.90;;;;;;5000765;28;20488;-49
2022/06/19 00:21:01;;;;;;;3.40;2.43;;;22.10;99.90;;;;;;5001533;28;20447;-51
2022/06/19 00:23:29;;;;;;;3.10;2.50;;;22.10;99.90;;;;;;5001641;28;20442;-50
2022/06/19 00:25:57;;;;;;;2.43;2.20;;;22.10;99.90;;;;;;5001883;28;20455;-51
2022/06/19 00:28:24;;;;;;;3.30;3.00;;;22.20;99.90;;;;;;5001210;28;20437;-49
2022/06/19 00:30:52;;;;;;;7.20;2.30;;;22.20;99.90;;;;;;5002607;28;20442;-46
2022/06/19 00:33:19;;;;;;;3.20;2.37;;;22.10;99.90;;;;;;5002328;28;20425;-49
2022/06/19 00:35:47;;;;;;;2.77;2.57;;;22.10;99.90;;;;;;4994939;28;20462;-44
2022/06/19 00:38:14;;;;;;;2.40;2.20;;;22.00;99.90;;;;;;5002185;28;20457;-49
2022/06/19 00:40:42;;;;;;;2.70;2.50;;;22.00;99.90;;;;;;5002655;28;20442;-47
2022/06/19 00:43:09;;;;;;;2.90;2.60;;;22.10;99.90;;;;;;5002199;28;20438;-50
2022/06/19 00:45:49;;;;;;;4.93;3.10;;;22.00;99.90;;;;;;5002391;28;20437;-45
2022/06/19 00:48:36;;;;;;;3.47;3.17;;;22.00;99.90;;;;;;5001850;28;20466;-44
2022/06/19 00:51:05;;;;;;;3.57;2.67;;;22.00;99.90;;;;;;4996557;28;20455;-45
2022/06/19 00:53:35;;;;;;;4.53;2.53;;;22.00;99.90;;;;;;5001938;28;20423;-46
2022/06/19 00:56:04;;;;;;;3.00;2.80;;;22.00;99.90;;;;;;5002096;28;20526;-50
2022/06/19 00:58:38;;;;;;;2.50;2.40;;;22.10;99.90;;;;;;5002080;28;20482;-48
2022/06/19 01:01:09;;;;;;;3.50;2.97;;;21.90;99.90;;;;;;5002530;28;20400;-51
2022/06/19 01:03:49;;;;;;;7.00;2.43;;;22.00;99.90;;;;;;5002358;28;20747;-48
2022/06/19 01:06:17;;;;;;;3.20;2.53;;;22.10;99.90;;;;;;5002204;28;20850;-45
2022/06/19 01:08:44;;;;;;;3.10;2.80;;;22.20;99.90;;;;;;5001886;28;20439;-45
2022/06/19 01:11:12;;;;;;;3.37;3.17;;;22.10;99.90;;;;;;5002056;28;20415;-45
2022/06/19 01:13:39;;;;;;;2.73;2.63;;;22.10;99.90;;;;;;5002601;28;20416;-44
2022/06/19 01:16:07;;;;;;;3.77;2.93;;;22.00;99.90;;;;;;5003760;28;20445;-44
2022/06/19 01:18:37;;;;;;;2.40;2.20;;;22.10;99.90;;;;;;5003748;28;20488;-46
2022/06/19 01:21:29;;;;;;;3.33;3.10;;;22.10;99.90;;;;;;5003759;28;20410;-46
2022/06/19 01:24:31;;;;;;;2.80;2.60;;;22.00;99.90;;;;;;5003706;28;20434;-45
2022/06/19 01:27:01;;;;;;;4.30;2.77;;;22.00;99.90;;;;;;4997371;28;20784;-47
2022/06/19 01:29:32;;;;;;;2.83;2.63;;;22.00;99.90;;;;;;5001468;28;20408;-49
2022/06/19 01:32:07;;;;;;;5.57;2.70;;;22.00;99.90;;;;;;5001189;28;20439;-46
2022/06/19 01:34:38;;;;;;;4.90;2.90;;;21.90;99.90;;;;;;5001393;28;20454;-50
2022/06/19 01:37:14;;;;;;;3.70;3.17;;;21.90;99.90;;;;;;5001015;28;20454;-46
2022/06/19 01:39:46;;;;;;;3.07;2.77;;;21.80;99.90;;;;;;5001279;28;20468;-50
2022/06/19 01:42:15;;;;;;;3.53;3.23;;;21.80;99.90;;;;;;4999076;28;20761;-49
2022/06/19 01:44:44;;;;;;;3.90;2.57;;;21.70;99.90;;;;;;5001593;28;20455;-47
2022/06/19 01:47:12;;;;;;;3.50;2.73;;;21.70;99.90;;;;;;5000719;28;20466;-45
2022/06/19 01:49:43;;;;;;;2.90;2.70;;;21.80;99.90;;;;;;5001113;28;20420;-49
2022/06/19 01:52:11;;;;;;;3.07;2.87;;;21.80;99.90;;;;;;5001326;28;20652;-47
2022/06/19 01:54:42;;;;;;;2.80;2.60;;;21.80;99.90;;;;;;5001044;28;20565;-47
2022/06/19 01:57:11;;;;;;;3.30;3.03;;;21.70;99.90;;;;;;5000193;28;20488;-45
2022/06/19 01:59:45;;;;;;;3.73;2.70;;;21.60;99.90;;;;;;5001153;28;20412;-51
2022/06/19 02:02:14;;;;;;;2.77;2.57;;;21.60;99.90;;;;;;5000587;28;20435;-47
2022/06/19 02:04:46;;;;;;;3.50;3.20;;;21.60;99.90;;;;;;5000983;28;20488;-49
2022/06/19 02:07:21;;;;;;;3.00;2.60;;;21.60;99.90;;;;;;5000649;28;20416;-47
2022/06/19 02:09:51;;;;;;;3.30;3.00;;;21.50;99.90;;;;;;4993451;28;20470;-49
2022/06/19 02:12:19;;;;;;;4.27;3.03;;;21.50;99.90;;;;;;5000578;28;20443;-46
2022/06/19 02:14:47;;;;;;;3.40;2.83;;;21.40;99.90;;;;;;4992762;28;20466;-48
2022/06/19 02:17:30;;;;;;;12.53;3.50;;;21.30;99.90;;;;;;5000379;28;20511;-46
2022/06/19 02:19:57;;;;;;;3.10;2.90;;;21.30;99.90;;;;;;5000909;28;20443;-49
2022/06/19 02:22:24;;;;;;;4.73;2.40;;;21.20;99.90;;;;;;5000413;28;20433;-51
2022/06/19 02:24:52;;;;;;;4.70;3.67;;;21.20;99.90;;;;;;5000583;28;20439;-48
2022/06/19 02:27:19;;;;;;;3.37;3.07;;;21.20;99.90;;;;;;5000434;28;20776;-46
2022/06/19 02:29:51;;;;;;;3.27;2.90;;;21.10;99.90;;;;;;4992623;28;20477;-47
2022/06/19 02:32:42;;;;;;;4.10;2.97;;;21.20;99.90;;;;;;5000409;28;20589;-50
2022/06/19 02:35:17;;;;;;;3.67;3.27;;;20.90;99.90;;;;;;4995711;28;20481;-47
2022/06/19 02:37:50;;;;;;;3.50;3.20;;;21.00;99.90;;;;;;5000294;28;20996;-48
2022/06/19 02:40:34;;;;;;;4.77;3.37;;;20.80;99.90;;;;;;4999980;28;20472;-50
2022/06/19 02:43:02;;;;;;;3.57;3.27;;;21.00;99.90;;;;;;4999520;28;20476;-50
2022/06/19 02:45:34;;;;;;;6.13;3.20;;;21.10;99.90;;;;;;5000522;28;20858;-46
2022/06/19 02:48:01;;;;;;;3.20;2.87;;;21.10;99.90;;;;;;5000549;28;20569;-44
2022/06/19 02:50:33;;;;;;;7.73;3.60;;;21.10;99.90;;;;;;5000104;28;20501;-45
2022/06/19 02:53:01;;;;;;;3.80;3.07;;;21.10;99.90;;;;;;4999566;28;20413;-45
2022/06/19 02:55:28;;;;;;;4.73;3.13;;;21.00;99.90;;;;;;5000037;28;20443;-46
2022/06/19 02:57:56;;;;;;;3.40;2.90;;;21.00;99.90;;;;;;5000038;28;20477;-45
2022/06/19 03:00:27;;;;;;;4.13;2.93;;;21.00;99.90;;;;;;4999243;28;20411;-51
2022/06/19 03:03:03;;;;;;;3.10;2.90;;;20.90;99.90;;;;;;5000513;28;20474;-51
2022/06/19 03:05:31;;;;;;;7.80;2.70;;;21.00;99.90;;;;;;4998122;28;20833;-51
2022/06/19 03:07:58;;;;;;;2.30;2.17;;;21.10;99.90;;;;;;5000080;28;20416;-50
2022/06/19 03:10:27;;;;;;;2.87;2.53;;;21.00;99.90;;;;;;5000319;28;20440;-49
2022/06/19 03:12:54;;;;;;;3.93;2.83;;;21.10;99.90;;;;;;4999940;28;20458;-48
2022/06/19 03:15:21;;;;;;;2.40;2.20;;;21.20;99.90;;;;;;4999810;28;20472;-46
2022/06/19 03:17:48;;;;;;;3.30;3.00;;;21.30;99.90;;;;;;5000290;28;20461;-52
2022/06/19 03:20:17;;;;;;;2.87;2.60;;;21.40;99.90;;;;;;4999585;28;20436;-52
2022/06/19 03:22:45;;;;;;;3.53;2.90;;;21.40;99.90;;;;;;5000242;28;20413;-47
2022/06/19 03:25:12;;;;;;;5.20;2.90;;;21.50;99.90;;;;;;4999190;28;20465;-50
2022/06/19 03:27:39;;;;;;;2.80;2.60;;;21.50;99.90;;;;;;5000135;28;20789;-47
2022/06/19 03:30:08;;;;;;;3.07;2.80;;;21.60;99.90;;;;;;4999581;28;20409;-50
2022/06/19 03:32:35;;;;;;;3.90;3.00;;;21.60;99.90;;;;;;5000024;28;20784;-49
2022/06/19 03:35:03;;;;;;;2.73;2.53;;;21.70;99.90;;;;;;4999592;28;20664;-50
2022/06/19 03:37:30;;;;;;;2.50;2.30;;;21.80;99.90;;;;;;4999830;28;20486;-50
2022/06/19 03:39:57;;;;;;;4.03;2.60;;;21.90;99.90;;;;;;4999952;28;20414;-50
2022/06/19 03:42:24;;;;;;;2.90;2.60;;;22.00;99.90;;;;;;4999724;28;20663;-47
2022/06/19 03:44:52;;;;;;;4.13;3.10;;;22.10;99.90;;;;;;5000166;28;20633;-47
2022/06/19 03:47:22;;;;;;;3.43;2.30;;;22.20;99.90;;;;;;4999081;28;20416;-52
2022/06/19 03:49:51;;;;;;;2.27;2.17;;;22.20;99.90;;;;;;4992389;28;20439;-45
2022/06/19 03:52:18;;;;;;;2.67;2.47;;;22.50;99.90;;;;;;4999450;28;20421;-46
2022/06/19 03:54:45;;;;;;;3.17;2.97;;;22.50;99.90;;;;;;4999462;28;20793;-45
2022/06/19 03:57:14;;;;;;;4.17;2.60;;;22.70;99.90;;;;;;4999507;28;20414;-47
2022/06/19 03:59:41;;;;;;;11.00;2.67;;;22.80;99.90;;;;;;4999663;28;20477;-48
2022/06/19 04:02:10;;;;;;;2.70;2.30;;;22.90;99.90;;;;;;4999514;28;20422;-48
2022/06/19 04:04:42;;;;;;;2.50;2.30;;;22.90;99.90;;;;;;5001479;28;20500;-51
2022/06/19 04:07:14;;;;;;;2.80;2.60;;;23.00;99.90;;;;;;4997928;28;20654;-48
2022/06/19 04:09:45;;;;;;;2.43;2.20;;;23.10;99.90;;;;;;5003052;28;20410;-51
2022/06/19 04:12:13;;;;;;;2.80;2.60;;;23.20;99.90;;;;;;4998210;28;20435;-47
2022/06/19 04:14:40;;;;;;;3.93;2.87;;;23.20;99.90;;;;;;5002768;28;20476;-46
2022/06/19 04:17:08;;;;;;;2.77;2.20;;;23.20;99.90;;;;;;5002808;28;20418;-49
2022/06/19 04:19:35;;;;;;;2.13;1.93;;;23.30;99.90;;;;;;5002400;28;20494;-46
2022/06/19 04:22:04;;;;;;;2.20;2.00;;;23.40;99.90;;;;;;5002965;28;20668;-49
2022/06/19 04:24:31;;;;;;;3.00;2.80;;;23.40;99.90;;;;;;5002471;28;20414;-50
2022/06/19 04:27:02;;;;;;;2.53;2.33;;;23.40;99.90;;;;;;5002579;28;20431;-51
2022/06/19 04:29:29;;;;;;;3.80;2.20;;;23.50;99.90;;;;;;5002316;28;20425;-47
2022/06/19 04:31:57;;;;;;;2.40;2.20;;;23.70;99.90;;;;;;5003107;28;20647;-48
2022/06/19 04:34:24;;;;;;;1.90;1.73;;;23.80;99.90;;;;;;5002823;28;20446;-46
2022/06/19 04:36:51;;;;;;;2.43;2.23;;;24.10;99.90;;;;;;5002735;28;20426;-51
2022/06/19 04:39:18;;;;;;;2.17;2.03;;;24.30;99.90;;;;;;5002261;28;20461;-48
2022/06/19 04:41:46;;;;;;;2.37;2.13;;;24.40;99.90;;;;;;4994343;28;20434;-50
2022/06/19 04:44:16;;;;;;;1.97;1.87;;;24.40;99.90;;;;;;5002107;28;20417;-47
2022/06/19 04:46:44;;;;;;;3.63;2.53;;;24.70;99.90;;;;;;5001707;28;20518;-47
2022/06/19 04:49:15;;;;;;;2.13;2.00;;;24.60;99.90;;;;;;4998886;28;20444;-47
2022/06/19 04:51:43;;;;;;;2.00;1.90;;;24.70;99.90;;;;;;5001956;28;20439;-46
2022/06/19 04:54:14;;;;;;;2.60;2.03;;;24.80;99.90;;;;;;5002026;28;20447;-48
2022/06/19 04:56:46;;;;;;;2.33;1.90;;;24.90;99.90;;;;;;5001186;28;20642;-46
2022/06/19 04:59:13;;;;;;;2.53;2.33;;;25.10;99.90;;;;;;5002054;28;20478;-48
2022/06/19 05:01:40;;;;;;;1.87;1.73;;;25.30;99.90;;;;;;5002408;28;20411;-49
2022/06/19 05:04:10;;;;;;;2.70;1.80;;;25.50;99.90;;;;;;5001512;28;20439;-50
2022/06/19 05:06:39;;;;;;;1.90;1.80;;;25.70;99.90;;;;;;5000848;28;20434;-51
2022/06/19 05:09:06;;;;;;;1.90;1.70;;;25.70;99.90;;;;;;5000874;28;20693;-45
2022/06/19 05:11:34;;;;;;;2.67;2.47;;;25.70;99.90;;;;;;5002142;28;20432;-51
2022/06/19 05:14:02;;;;;;;2.30;2.20;;;25.80;99.90;;;;;;5001418;28;20446;-48
2022/06/19 05:16:36;;;;;;;2.77;2.30;;;25.90;99.90;;;;;;5001528;28;20712;-48
2022/06/19 05:19:04;;;;;;;2.73;2.57;;;26.10;99.90;;;;;;4995751;28;20489;-50
2022/06/19 05:21:32;;;;;;;4.13;2.20;;;26.20;99.90;;;;;;5001244;28;20445;-47
2022/06/19 05:23:59;;;;;;;3.20;3.00;;;26.40;99.90;;;;;;5001853;28;20678;-52
2022/06/19 05:26:29;;;;;;;3.13;2.33;;;26.50;99.90;;;;;;5000920;28;20635;-48
2022/06/19 05:28:57;;;;;;;2.07;1.97;;;26.60;99.90;;;;;;5001243;28;20670;-46
2022/06/19 05:31:25;;;;;;;2.40;2.20;;;26.70;99.90;;;;;;5001134;28;20533;-48
2022/06/19 05:33:54;;;;;;;2.13;1.93;;;26.90;99.90;;;;;;5001260;28;20438;-45
2022/06/19 05:36:22;;;;;;;1.83;1.73;;;27.20;99.90;;;;;;5000700;28;20463;-50
2022/06/19 05:38:50;;;;;;;3.50;2.50;;;27.40;99.90;;;;;;5001073;28;20477;-44
2022/06/19 05:41:18;;;;;;;4.03;2.00;;;27.70;99.90;;;;;;5000957;28;20617;-47
2022/06/19 05:43:49;;;;;;;2.03;1.93;;;27.70;99.90;;;;;;5000975;28;20445;-46
2022/06/19 05:46:18;;;;;;;1.83;1.73;;;27.80;99.90;;;;;;5000941;28;20463;-46
2022/06/19 05:48:46;;;;;;;2.63;2.43;;;27.80;99.90;;;;;;4996642;28;20457;-49
2022/06/19 05:51:18;;;;;;;4.10;2.53;;;27.80;99.90;;;;;;5000682;28;20463;-47
2022/06/19 05:53:49;;;;;;;2.40;2.20;;;27.90;99.90;;;;;;5000610;28;20469;-51
2022/06/19 05:56:17;;;;;;;2.70;2.17;;;28.10;99.90;;;;;;5000490;28;20437;-49
2022/06/19 05:58:45;;;;;;;2.40;2.23;;;28.20;99.90;;;;;;5001026;28;20521;-48
2022/06/19 06:01:14;;;;;;;2.60;2.40;;;28.30;99.90;;;;;;5001042;28;20417;-50
2022/06/19 06:03:45;;;;;;;2.37;2.17;;;28.50;99.90;;;;;;5000340;28;20761;-45
2022/06/19 06:06:16;;;;;;;4.80;2.70;;;28.60;99.90;;;;;;5001381;28;20502;-46
2022/06/19 06:08:43;;;;;;;2.40;1.97;;;28.70;99.90;;;;;;5000664;28;20434;-46
2022/06/19 06:11:11;;;;;;;2.63;2.13;;;28.80;99.90;;;;;;5002122;28;20502;-46
2022/06/19 06:13:39;;;;;;;2.50;2.30;;;28.80;99.90;;;;;;5001378;28;20418;-47
2022/06/19 06:16:06;;;;;;;2.67;2.47;;;28.90;99.90;;;;;;5000729;28;20466;-48
2022/06/19 06:18:35;;;;;;;2.50;2.30;;;28.90;99.90;;;;;;5000396;28;20891;-46
2022/06/19 06:21:11;;;;;;;3.93;2.60;;;29.30;99.90;;;;;;5000823;28;20431;-48
2022/06/19 06:23:39;;;;;;;2.33;2.23;;;29.40;99.90;;;;;;5000175;28;20454;-49
2022/06/19 06:26:14;;;;;;;2.23;2.13;;;29.90;99.90;;;;;;5000471;28;20688;-49
2022/06/19 06:28:44;;;;;;;3.60;2.43;;;30.20;99.90;;;;;;5001290;28;20436;-48
2022/06/19 06:31:12;;;;;;;2.60;2.40;;;30.10;99.90;;;;;;5000235;28;20448;-50
2022/06/19 06:33:40;;;;;;;2.57;2.17;;;30.20;99.90;;;;;;4999809;28;20643;-49
2022/06/19 06:36:08;;;;;;;4.23;2.37;;;30.40;99.90;;;;;;5000224;28;20512;-52
2022/06/19 06:38:36;;;;;;;2.27;2.10;;;30.60;99.90;;;;;;5000222;28;20665;-45
2022/06/19 06:41:08;;;;;;;2.00;1.83;;;31.00;99.90;;;;;;5000435;28;20485;-48
2022/06/19 06:43:37;;;;;;;6.10;2.50;;;31.40;99.90;;;;;;4999647;28;20666;-46
2022/06/19 06:46:10;;;;;;;4.20;2.33;;;31.60;99.80;;;;;;5000105;28;20495;-46
2022/06/19 06:48:38;;;;;;;1.90;1.80;;;31.90;99.70;;;;;;4999776;28;20446;-47
2022/06/19 06:51:07;;;;;;;2.63;2.43;;;32.30;98.20;;;;;;4999780;28;20435;-45
2022/06/19 06:53:34;;;;;;;2.63;2.23;;;32.90;97.10;;;;;;5000121;28;20442;-45
2022/06/19 06:56:02;;;;;;;2.10;1.90;;;33.10;95.80;;;;;;4999976;28;20509;-47
2022/06/19 06:58:30;;;;;;;3.80;2.33;;;33.30;95.30;;;;;;5000027;28;20837;-49
2022/06/19 07:00:57;;;;;;;2.30;2.20;;;33.60;94.80;;;;;;5000109;28;20436;-49
2022/06/19 07:03:27;;;;;;;5.33;2.70;;;34.10;93.30;;;;;;5000348;28;20455;-50
2022/06/19 07:05:55;;;;;;;2.40;2.30;;;34.90;92.10;;;;;;5000536;28;20477;-46
2022/06/19 07:08:22;;;;;;;3.30;2.40;;;35.60;90.30;;;;;;4999841;28;20506;-50
2022/06/19 07:10:49;;;;;;;3.83;2.47;;;35.80;88.60;;;;;;4999781;28;20766;-46
2022/06/19 07:13:16;;;;;;;2.27;2.07;;;36.60;85.70;;;;;;4999656;28;20467;-46
2022/06/19 07:15:43;;;;;;;2.00;1.90;;;37.50;82.30;;;;;;4999711;28;20517;-48
2022/06/19 07:18:14;;;;;;;2.17;1.97;;;38.30;76.90;;;;;;4999937;28;20801;-47
2022/06/19 07:20:41;;;;;;;2.37;2.17;;;39.10;72.60;;;;;;4999139;28;20466;-48
2022/06/19 07:23:08;;;;;;;2.43;2.23;;;38.80;71.40;;;;;;4999501;28;20615;-46
2022/06/19 07:25:35;;;;;;;3.07;2.60;;;39.00;70.60;;;;;;4999941;28;20466;-46
2022/06/19 07:28:03;;;;;;;1.80;1.70;;;39.90;67.10;;;;;;5000046;28;20490;-45
2022/06/19 07:30:30;;;;;;;2.80;2.60;;;40.30;65.50;;;;;;4999485;28;20815;-48
2022/06/19 07:33:00;;;;;;;2.10;2.00;;;41.20;63.20;;;;;;4999675;28;20766;-45
2022/06/19 07:35:27;;;;;;;2.20;2.10;;;41.90;60.60;;;;;;4999377;28;20486;-46
2022/06/19 07:37:54;;;;;;;2.00;1.90;;;42.90;58.50;;;;;;4999756;28;20441;-48
2022/06/19 07:40:23;;;;;;;2.60;2.40;;;42.40;57.40;;;;;;5002872;28;20550;-48
2022/06/19 07:42:50;;;;;;;2.50;2.10;;;43.00;56.70;;;;;;4996302;28;20438;-46
2022/06/19 07:45:18;;;;;;;3.33;2.33;;;43.60;54.80;;;;;;5003454;28;20459;-49
2022/06/19 07:50:31;;;;;;;2.60;2.40;;;43.40;53.30;;;;;;5003247;28;20446;-46
2022/06/19 07:52:58;;;;;;;2.23;2.13;;;42.40;53.50;;;;;;5003590;28;20442;-47
2022/06/19 07:55:28;;;;;;;2.10;2.00;;;42.90;53.30;;;;;;5002701;28;20463;-52
2022/06/19 07:57:55;;;;;;;2.57;2.37;;;43.20;52.80;;;;;;5003404;28;20490;-50
2022/06/19 08:00:29;;;;;;;2.43;2.00;;;44.50;51.70;;;;;;5002745;28;20719;-46
2022/06/19 08:02:56;;;;;;;2.30;2.20;;;44.90;50.00;;;;;;5004176;28;20631;-49
2022/06/19 08:05:29;;;;;;;2.93;2.57;;;44.60;49.80;;;;;;4999854;28;20487;-49
2022/06/19 08:07:58;;;;;;;1.80;1.70;;;44.60;50.20;;;;;;5003786;28;20435;-47
2022/06/19 08:10:35;;;;;;;3.13;2.93;;;44.60;49.20;;;;;;5003676;28;20454;-48
2022/06/19 08:13:04;;;;;;;2.50;2.30;;;44.70;49.20;;;;;;5003953;28;20439;-49
2022/06/19 08:15:33;;;;;;;12.13;2.77;;;45.20;48.70;;;;;;5003993;28;20967;-50
2022/06/19 08:18:04;;;;;;;7.40;2.67;;;45.60;47.70;;;;;;5004197;28;20474;-48
2022/06/19 08:20:31;;;;;;;2.47;2.13;;;45.20;47.50;;;;;;5003622;28;21035;-49
2022/06/19 08:22:59;;;;;;;2.30;2.10;;;45.60;47.20;;;;;;5003885;28;20836;-51
2022/06/19 08:25:26;;;;;;;2.50;2.37;;;45.70;46.40;;;;;;5003157;28;20463;-48
2022/06/19 08:27:54;;;;;;;2.23;2.00;;;45.70;46.30;;;;;;5003348;28;20479;-53
2022/06/19 08:30:23;;;;;;;3.50;2.07;;;45.70;47.10;;;;;;5002975;28;20443;-52
2022/06/19 08:32:52;;;;;;;2.53;2.33;;;45.00;46.40;;;;;;5003095;28;20451;-52
2022/06/19 08:35:20;;;;;;;1.97;1.87;;;44.30;47.50;;;;;;5003247;28;20509;-50
2022/06/19 08:37:53;;;;;;;3.87;2.63;;;44.20;47.30;;;;;;4997822;28;20439;-53
2022/06/19 08:40:50;;;;;;;1.80;1.70;;;45.00;46.90;;;;;;5004293;28;20475;-53
2022/06/19 08:43:45;;;;;;;3.00;2.80;;;46.10;45.30;;;;;;4998687;28;20474;-51
2022/06/19 08:46:49;;;;;;;2.33;2.13;;;45.10;45.60;;;;;;4998128;28;20486;-51
2022/06/19 08:49:46;;;;;;;3.03;2.83;;;44.30;46.50;;;;;;4999381;28;20438;-50
2022/06/19 08:52:26;;;;;;;2.10;2.00;;;44.00;45.80;;;;;;4998102;28;20435;-50
2022/06/19 08:55:18;;;;;;;3.27;2.00;;;43.70;46.80;;;;;;5000026;28;20455;-47
2022/06/19 08:58:08;;;;;;;2.70;2.50;;;44.60;46.20;;;;;;5002131;28;20436;-48
2022/06/19 09:00:51;;;;;;;7.43;3.17;;;43.90;46.50;;;;;;4985944;28;20487;-51
2022/06/19 09:06:50;;;;;;;2.40;2.03;;;45.60;44.20;;;;;;5000479;28;20527;-53
2022/06/19 09:09:43;;;;;;;2.40;1.97;;;44.80;45.40;;;;;;5002164;28;20428;-49
2022/06/19 09:12:29;;;;;;;2.53;2.23;;;44.10;45.80;;;;;;5001622;28;20441;-49
2022/06/19 09:15:00;;;;;;;12.63;2.27;;;43.90;46.10;;;;;;4997326;28;20653;-46
2022/06/19 09:17:35;;;;;;;13.03;2.80;;;43.20;45.90;;;;;;5001546;28;20805;-47
2022/06/19 09:20:48;;;;;;;3.10;2.67;;;42.80;46.50;;;;;;5002444;28;20521;-48
2022/06/19 09:23:54;;;;;;;3.27;2.03;;;42.70;46.40;;;;;;4918564;29;20443;-46
2022/06/19 09:26:31;;;;;;;1.80;1.70;;;41.60;47.60;;;;;;4998306;28;20483;-47
2022/06/19 09:29:05;;;;;;;4.70;2.60;;;41.30;48.00;;;;;;5001600;28;20553;-51
2022/06/19 09:31:44;;;;;;;2.47;2.30;;;41.00;47.40;;;;;;5001702;28;20447;-51
2022/06/19 09:34:20;;;;;;;3.80;2.80;;;40.90;47.20;;;;;;5001424;28;20808;-49
2022/06/19 09:36:57;;;;;;;1.97;1.87;;;40.50;48.30;;;;;;4994296;28;20435;-52
2022/06/19 09:39:37;;;;;;;2.80;2.27;;;39.40;49.70;;;;;;5000991;28;20481;-53
2022/06/19 09:42:16;;;;;;;2.93;2.73;;;38.20;51.20;;;;;;5001517;28;20760;-49
2022/06/19 09:45:01;;;;;;;1.97;1.87;;;37.20;52.50;;;;;;5000790;28;20698;-51
2022/06/19 09:47:33;;;;;;;1.97;1.77;;;36.80;52.70;;;;;;5001110;28;20637;-49
2022/06/19 09:50:43;;;;;;;4.93;2.77;;;36.40;53.20;;;;;;5001068;28;20440;-48
2022/06/19 09:53:16;;;;;;;2.53;2.20;;;35.90;53.50;;;;;;4998590;28;20444;-51
2022/06/19 09:56:17;;;;;;;3.03;2.20;;;35.60;53.90;;;;;;4998548;28;20447;-48
2022/06/19 09:58:53;;;;;;;4.47;3.10;;;35.20;54.40;;;;;;5001679;28;20447;-48
2022/06/19 10:01:23;;;;;;;3.23;2.13;;;35.00;54.60;;;;;;5000154;28;20434;-52
2022/06/19 10:04:22;;;;;;;3.37;2.67;;;35.00;55.30;;;;;;4994446;28;20437;-46
2022/06/19 10:06:57;;;;;;;4.40;2.27;;;35.10;55.40;;;;;;4999111;28;20435;-50
2022/06/19 10:09:35;;;;;;;3.30;2.97;;;35.10;55.60;;;;;;5001110;28;20477;-47
2022/06/19 10:12:06;;;;;;;2.43;2.23;;;34.80;54.60;;;;;;5000708;28;20435;-48
2022/06/19 10:14:41;;;;;;;10.00;2.10;;;34.70;54.90;;;;;;5000937;28;20431;-50
2022/06/19 10:17:30;;;;;;;2.67;1.67;;;34.60;54.80;;;;;;5000855;28;20438;-49
2022/06/19 10:20:14;;;;;;;8.50;1.93;;;34.50;55.30;;;;;;4994884;28;20479;-48
2022/06/19 10:22:48;;;;;;;2.30;2.13;;;34.20;55.60;;;;;;5000125;28;20507;-50
2022/06/19 10:25:24;;;;;;;5.43;2.10;;;34.20;55.30;;;;;;5000425;28;20458;-49
2022/06/19 10:28:10;;;;;;;10.07;2.87;;;34.20;55.10;;;;;;4994562;28;20443;-50
2022/06/19 10:30:53;;;;;;;4.03;1.90;;;34.10;55.50;;;;;;5000807;28;20550;-50
2022/06/19 10:33:32;;;;;;;13.87;2.70;;;34.10;55.30;;;;;;5000520;28;20450;-51
2022/06/19 10:36:20;;;;;;;3.07;2.13;;;34.00;55.50;;;;;;5000264;28;20842;-49
2022/06/19 10:38:47;;;;;;;4.47;1.80;;;34.00;55.90;;;;;;4995905;28;20431;-51
2022/06/19 10:44:42;;;;;;;6.83;2.17;;;34.10;55.50;;;;;;4998299;28;20431;-49
2022/06/19 10:47:18;;;;;;;4.00;2.40;;;33.70;54.70;;;;;;4995980;28;20436;-50
2022/06/19 10:50:21;;;;;;;8.30;2.30;;;33.40;55.30;;;;;;4993002;28;20427;-52
2022/06/19 10:52:57;;;;;;;3.50;3.07;;;33.50;55.80;;;;;;4995505;28;20443;-45
2022/06/19 10:56:14;;;;;;;2.83;2.27;;;33.70;55.80;;;;;;5000301;28;20653;-45
2022/06/19 10:58:42;;;;;;;3.30;1.97;;;33.80;55.50;;;;;;4976893;28;20451;-47
2022/06/19 11:04:06;;;;;;;3.07;1.70;;;33.70;55.90;;;;;;5000298;28;20554;-47
2022/06/19 11:04:19;;;;;;;3.67;2.03;;;33.80;55.80;;;;;;5002058;28;20770;-48
2022/06/19 11:06:53;;;;;;;2.27;2.07;;;33.60;56.00;;;;;;5000600;28;20547;-46
2022/06/19 11:09:29;;;;;;;7.80;2.43;;;33.70;56.00;;;;;;4999757;28;20467;-49
2022/06/19 11:12:03;;;;;;;3.23;2.20;;;33.80;56.00;;;;;;4998891;28;20438;-50
2022/06/19 11:14:43;;;;;;;2.80;2.37;;;33.80;55.60;;;;;;5003653;28;20508;-46
2022/06/19 11:17:37;;;;;;;3.00;2.53;;;33.90;55.20;;;;;;5003790;28;20431;-48
2022/06/19 11:20:17;;;;;;;5.90;2.60;;;33.80;55.00;;;;;;4997199;28;20846;-48
2022/06/19 11:22:49;;;;;;;2.10;2.00;;;33.90;54.90;;;;;;5003991;28;20441;-47
2022/06/19 11:25:19;;;;;;;4.00;1.97;;;33.60;54.10;;;;;;5003857;28;20451;-47
2022/06/19 11:28:04;;;;;;;2.30;2.03;;;33.40;55.20;;;;;;5004652;28;20434;-46
2022/06/19 11:30:48;;;;;;;2.70;2.50;;;33.20;54.60;;;;;;5005437;28;20466;-46
2022/06/19 11:33:18;;;;;;;3.10;2.60;;;33.10;54.70;;;;;;5005463;28;20676;-46
2022/06/19 11:35:56;;;;;;;8.00;2.70;;;33.30;54.30;;;;;;5003460;28;20465;-50
2022/06/19 11:38:44;;;;;;;7.50;2.80;;;33.40;53.20;;;;;;5004889;28;20745;-49
2022/06/19 11:41:18;;;;;;;8.10;2.80;;;33.20;53.50;;;;;;4999195;28;20475;-49
2022/06/19 11:43:45;;;;;;;7.77;2.40;;;33.20;53.40;;;;;;5004935;28;20512;-49
2022/06/19 11:46:25;;;;;;;3.60;1.93;;;33.20;53.80;;;;;;5000341;28;20543;-48
2022/06/19 11:48:53;;;;;;;5.60;2.17;;;33.30;54.40;;;;;;4999372;28;20651;-52
2022/06/19 11:51:28;;;;;;;5.80;2.83;;;33.40;54.70;;;;;;5001463;28;20689;-49
2022/06/19 11:53:58;;;;;;;3.73;2.93;;;33.50;54.30;;;;;;4997567;28;20753;-49
2022/06/19 11:56:34;;;;;;;2.80;2.17;;;33.50;54.40;;;;;;5004233;28;20526;-49
2022/06/19 11:59:39;;;;;;;3.20;2.80;;;33.40;55.40;;;;;;5004669;28;20829;-47
2022/06/19 12:02:37;;;;;;;50.80;3.33;;;33.40;55.60;;;;;;4999422;28;20427;-47
2022/06/19 12:05:19;;;;;;;3.70;2.50;;;33.20;55.50;;;;;;5001398;28;20466;-45
2022/06/19 12:07:47;;;;;;;3.40;2.30;;;33.00;56.30;;;;;;4995350;28;20773;-49
2022/06/19 12:10:14;;;;;;;3.17;2.60;;;33.20;56.40;;;;;;5002601;28;20443;-50
2022/06/19 12:12:56;;;;;;;8.73;3.07;;;33.20;56.70;;;;;;5003146;28;20443;-50
2022/06/19 12:15:30;;;;;;;5.17;3.23;;;33.20;56.90;;;;;;5000237;28;20471;-51
2022/06/19 12:18:14;;;;;;;6.40;3.03;;;33.20;56.80;;;;;;5003348;28;20814;-48
2022/06/19 12:20:42;;;;;;;8.23;2.53;;;33.30;56.60;;;;;;5003077;28;20545;-51
2022/06/19 12:23:15;;;;;;;3.67;2.77;;;33.30;56.90;;;;;;5003062;28;20793;-50
2022/06/19 12:25:53;;;;;;;3.63;3.13;;;33.30;56.70;;;;;;5000786;28;20458;-51
2022/06/19 12:28:57;;;;;;;10.43;3.70;;;33.30;56.70;;;;;;5002706;28;20427;-50
2022/06/19 12:31:37;;;;;;;5.03;2.50;;;33.20;57.00;;;;;;4999951;28;20455;-52
2022/06/19 12:34:30;;;;;;;3.37;2.60;;;33.20;56.80;;;;;;5002823;28;20649;-49
2022/06/19 12:37:00;;;;;;;4.77;2.73;;;33.10;57.10;;;;;;4997340;28;20447;-47
2022/06/19 12:39:31;;;;;;;3.50;2.60;;;33.00;57.00;;;;;;4997206;28;20761;-48
2022/06/19 12:42:10;;;;;;;8.93;2.73;;;33.00;57.80;;;;;;5002954;28;20432;-49
2022/06/19 12:44:58;;;;;;;10.53;3.07;;;33.00;57.30;;;;;;5001530;28;20454;-49
2022/06/19 12:47:32;;;;;;;3.67;3.37;;;33.10;57.20;;;;;;5002207;28;20442;-51
2022/06/19 12:50:19;;;;;;;5.53;2.70;;;33.10;57.20;;;;;;5002643;28;20475;-47
2022/06/19 12:53:07;;;;;;;2.23;2.03;;;33.20;56.40;;;;;;4996378;28;20439;-46
2022/06/19 12:55:43;;;;;;;2.33;1.90;;;33.20;56.50;;;;;;5000395;28;20463;-46
2022/06/19 12:58:35;;;;;;;4.80;2.40;;;33.20;56.40;;;;;;5016678;28;20471;-51
2022/06/19 13:01:19;;;;;;;3.37;2.33;;;33.20;55.70;;;;;;4996102;28;20482;-48
2022/06/19 13:04:09;;;;;;;7.23;2.50;;;33.10;55.70;;;;;;5002260;28;20726;-52
2022/06/19 13:06:44;;;;;;;2.70;2.00;;;33.00;55.20;;;;;;5001250;28;20458;-49
2022/06/19 13:09:31;;;;;;;3.73;2.60;;;33.10;55.70;;;;;;5001914;28;20414;-49
2022/06/19 13:12:15;;;;;;;5.23;2.53;;;33.10;56.10;;;;;;5000169;28;20665;-48
2022/06/19 13:15:02;;;;;;;3.97;3.67;;;33.20;56.20;;;;;;5001908;28;20526;-48
2022/06/19 13:17:45;;;;;;;6.13;3.17;;;33.30;56.40;;;;;;5001497;28;20443;-47
2022/06/19 13:20:36;;;;;;;4.03;2.70;;;33.30;56.00;;;;;;5001784;28;20483;-51
2022/06/19 13:23:31;;;;;;;3.03;2.10;;;33.40;55.40;;;;;;4997023;28;20440;-50
2022/06/19 13:27:10;;;;;;;5.00;2.80;;;33.30;55.70;;;;;;5001784;28;20498;-48
2022/06/19 13:29:46;;;;;;;5.20;2.40;;;33.40;56.80;;;;;;5000297;28;20443;-53